createdAt,value
2017-08-02T00:01:41.612Z,16.83
2017-08-02T00:04:09.244Z,14.17
2017-08-02T00:06:36.887Z,23.47
2017-08-02T00:09:04.644Z,20.40
2017-08-02T00:11:32.277Z,17.97
2017-08-02T00:14:00.125Z,26.70
2017-08-02T00:16:27.788Z,24.60
2017-08-02T00:18:55.425Z,19.30
2017-08-02T00:21:23.053Z,23.03
2017-08-02T00:23:51.023Z,21.40
2017-08-02T00:26:18.782Z,18.30
2017-08-02T00:28:46.403Z,19.00
2017-08-02T00:31:14.065Z,19.53
2017-08-02T00:33:41.704Z,19.13
2017-08-02T00:36:10.008Z,22.60
2017-08-02T00:38:37.669Z,19.83
2017-08-02T00:41:05.468Z,15.17
2017-08-02T00:43:33.102Z,18.20
2017-08-02T00:46:00.773Z,15.93
2017-08-02T00:48:28.402Z,16.10
2017-08-02T00:50:57.463Z,19.50
2017-08-02T00:53:25.162Z,14.60
2017-08-02T00:55:52.777Z,13.53
2017-08-02T00:58:20.389Z,16.17
2017-08-02T01:00:48.820Z,13.80
2017-08-02T01:03:16.431Z,16.40
2017-08-02T01:05:44.061Z,14.37
2017-08-02T01:08:12.403Z,16.97
2017-08-02T01:10:40.037Z,13.10
2017-08-02T01:13:07.878Z,14.20
2017-08-02T01:15:35.579Z,11.43
2017-08-02T01:18:03.212Z,18.97
2017-08-02T01:20:30.828Z,14.30
2017-08-02T01:22:58.710Z,13.07
2017-08-02T01:25:26.346Z,16.27
2017-08-02T01:27:53.977Z,17.60
2017-08-02T01:30:21.984Z,16.40
2017-08-02T01:32:50.266Z,20.47
2017-08-02T01:35:17.893Z,12.97
2017-08-02T01:37:45.562Z,15.17
2017-08-02T01:40:14.109Z,21.27
2017-08-02T01:42:41.757Z,16.70
2017-08-02T01:45:09.448Z,17.73
2017-08-02T01:47:37.105Z,16.30
2017-08-02T01:50:04.742Z,20.37
2017-08-02T01:52:32.509Z,25.30
2017-08-02T01:55:00.166Z,29.87
2017-08-02T01:57:27.825Z,26.90
2017-08-02T01:59:55.519Z,26.23
2017-08-02T02:02:23.182Z,17.50
2017-08-02T02:04:50.803Z,23.67
2017-08-02T02:07:18.471Z,28.23
2017-08-02T02:09:46.097Z,26.17
2017-08-02T02:12:13.722Z,22.00
2017-08-02T02:14:42.044Z,29.97
2017-08-02T02:17:10.437Z,32.50
2017-08-02T02:19:38.235Z,33.13
2017-08-02T02:22:05.916Z,27.90
2017-08-02T02:24:33.537Z,34.00
2017-08-02T02:27:01.161Z,33.73
2017-08-02T02:29:28.830Z,35.20
2017-08-02T02:31:56.452Z,42.23
2017-08-02T02:34:24.216Z,24.23
2017-08-02T02:36:51.899Z,25.80
2017-08-02T02:39:19.519Z,32.40
2017-08-02T02:41:47.145Z,33.27
2017-08-02T02:44:14.821Z,32.23
2017-08-02T02:46:42.458Z,30.87
2017-08-02T02:49:10.085Z,40.87
2017-08-02T02:51:37.753Z,35.37
2017-08-02T02:54:05.369Z,35.03
2017-08-02T02:56:33.754Z,15.80
2017-08-02T02:59:01.541Z,12.40
2017-08-02T03:01:29.157Z,15.43
2017-08-02T03:03:56.784Z,15.77
2017-08-02T03:06:24.443Z,14.50
2017-08-02T03:08:52.213Z,14.97
2017-08-02T03:11:19.885Z,14.70
2017-08-02T03:13:47.819Z,11.40
2017-08-02T03:16:15.449Z,17.57
2017-08-02T03:18:43.074Z,15.93
2017-08-02T03:21:10.770Z,17.60
2017-08-02T03:23:38.398Z,16.33
2017-08-02T03:26:06.017Z,12.40
2017-08-02T03:28:34.439Z,12.90
2017-08-02T03:31:02.058Z,9.97
2017-08-02T03:33:29.691Z,11.43
2017-08-02T03:35:57.352Z,10.60
2017-08-02T03:38:24.965Z,16.43
2017-08-02T03:40:52.586Z,10.87
2017-08-02T03:43:20.946Z,11.40
2017-08-02T03:45:48.568Z,14.57
2017-08-02T03:48:16.211Z,10.83
2017-08-02T03:50:44.649Z,14.13
2017-08-02T03:53:12.405Z,8.60
2017-08-02T03:55:40.153Z,15.30
2017-08-02T03:58:07.920Z,10.57
2017-08-02T04:00:35.542Z,14.30
2017-08-02T04:03:04.110Z,11.70
2017-08-02T04:05:32.369Z,9.63
2017-08-02T04:07:59.987Z,10.10
2017-08-02T04:10:27.604Z,10.63
2017-08-02T04:12:55.272Z,9.37
2017-08-02T04:15:22.893Z,19.93
2017-08-02T04:17:50.520Z,10.90
2017-08-02T04:20:18.549Z,11.10
2017-08-02T04:22:46.166Z,12.03
2017-08-02T04:25:13.779Z,10.67
2017-08-02T04:27:41.526Z,7.80
2017-08-02T04:30:09.157Z,9.73
2017-08-02T04:32:36.769Z,9.23
2017-08-02T04:35:04.440Z,7.77
2017-08-02T04:37:32.059Z,8.20
2017-08-02T04:39:59.680Z,9.67
2017-08-02T04:42:27.353Z,12.07
2017-08-02T04:44:55.728Z,11.10
2017-08-02T04:47:23.346Z,12.80
2017-08-02T04:49:51.011Z,24.80
2017-08-02T04:52:18.628Z,19.60
2017-08-02T04:54:46.249Z,21.30
2017-08-02T04:57:13.912Z,26.43
2017-08-02T04:59:41.543Z,24.93
2017-08-02T05:02:09.164Z,24.43
2017-08-02T05:04:38.134Z,29.70
2017-08-02T05:07:05.861Z,27.23
2017-08-02T05:09:33.488Z,28.43
2017-08-02T05:12:01.489Z,20.77
2017-08-02T05:14:29.286Z,24.60
2017-08-02T05:16:56.916Z,23.20
2017-08-02T05:19:24.585Z,28.57
2017-08-02T05:21:52.223Z,18.67
2017-08-02T05:24:19.875Z,22.33
2017-08-02T05:26:47.536Z,16.63
2017-08-02T05:29:15.169Z,18.20
2017-08-02T05:31:42.792Z,19.63
2017-08-02T05:34:10.703Z,16.50
2017-08-02T05:36:38.369Z,22.03
2017-08-02T05:39:06.631Z,19.60
2017-08-02T05:41:34.293Z,18.10
2017-08-02T05:44:02.233Z,15.47
2017-08-02T05:46:30.145Z,15.07
2017-08-02T05:48:57.831Z,14.80
2017-08-02T05:51:25.452Z,13.43
2017-08-02T05:53:53.078Z,18.13
2017-08-02T05:56:20.963Z,14.73
2017-08-02T05:58:48.643Z,10.93
2017-08-02T06:01:16.277Z,10.93
2017-08-02T06:03:43.953Z,10.20
2017-08-02T06:06:11.576Z,13.87
2017-08-02T06:08:39.503Z,10.73
2017-08-02T06:11:07.172Z,8.80
2017-08-02T06:13:34.809Z,8.40
2017-08-02T06:16:02.436Z,7.50
2017-08-02T06:18:30.912Z,7.73
2017-08-02T06:20:58.568Z,6.53
2017-08-02T06:23:26.246Z,8.77
2017-08-02T06:25:53.932Z,6.93
2017-08-02T06:28:21.562Z,6.80
2017-08-02T06:30:49.188Z,6.20
2017-08-02T06:33:16.852Z,6.40
2017-08-02T06:35:44.584Z,8.57
2017-08-02T06:38:12.383Z,5.53
2017-08-02T06:40:40.076Z,5.50
2017-08-02T06:43:07.710Z,6.17
2017-08-02T06:45:35.321Z,5.90
2017-08-02T06:48:03.756Z,5.90
2017-08-02T06:50:31.388Z,6.37
2017-08-02T06:52:59.004Z,6.20
2017-08-02T06:55:26.672Z,6.70
2017-08-02T06:57:54.300Z,13.50
2017-08-02T07:00:21.916Z,5.33
2017-08-02T07:02:50.408Z,9.10
2017-08-02T07:05:18.034Z,5.60
2017-08-02T07:07:45.664Z,5.33
2017-08-02T07:10:13.337Z,4.63
2017-08-02T07:12:40.952Z,5.30
2017-08-02T07:15:08.778Z,7.30
2017-08-02T07:17:36.629Z,6.53
2017-08-02T07:20:04.251Z,5.27
2017-08-02T07:22:31.873Z,6.47
2017-08-02T07:24:59.544Z,5.33
2017-08-02T07:27:27.168Z,6.17
2017-08-02T07:29:54.792Z,5.40
2017-08-02T07:32:23.223Z,6.10
2017-08-02T07:34:50.991Z,5.77
2017-08-02T07:37:18.618Z,8.20
2017-08-02T07:39:46.313Z,8.67
2017-08-02T07:42:13.927Z,8.27
2017-08-02T07:44:42.337Z,6.03
2017-08-02T07:47:10.040Z,5.07
2017-08-02T07:49:37.661Z,6.50
2017-08-02T07:52:05.285Z,7.87
2017-08-02T07:54:33.809Z,7.17
2017-08-02T07:57:01.424Z,8.77
2017-08-02T07:59:29.258Z,5.93
2017-08-02T08:01:56.945Z,7.50
2017-08-02T08:04:24.568Z,5.07
2017-08-02T08:06:52.188Z,7.87
2017-08-02T14:07:37.833Z,14.93
2017-08-02T14:10:05.480Z,13.80
2017-08-02T14:12:33.140Z,11.83
2017-08-02T14:15:00.811Z,11.90
2017-08-02T14:17:28.473Z,13.30
2017-08-02T14:19:56.103Z,16.57
2017-08-02T14:22:23.766Z,12.37
2017-08-02T14:24:51.634Z,11.40
2017-08-02T14:27:19.276Z,17.93
2017-08-02T14:29:46.933Z,11.10
2017-08-02T14:32:14.551Z,15.03
2017-08-02T14:34:42.790Z,13.47
2017-08-02T14:37:10.677Z,18.77
2017-08-02T14:39:38.290Z,14.97
2017-08-02T14:42:05.912Z,10.40
2017-08-02T14:44:33.588Z,12.47
2017-08-02T14:47:02.124Z,13.00
2017-08-02T14:49:29.902Z,12.77
2017-08-02T14:51:57.856Z,15.00
2017-08-02T14:54:25.484Z,11.83
2017-08-02T14:56:53.417Z,12.87
2017-08-02T14:59:21.078Z,14.20
2017-08-02T15:01:48.948Z,13.50
2017-08-02T15:04:16.571Z,14.13
2017-08-02T15:06:44.263Z,17.33
2017-08-02T15:09:11.877Z,15.10
2017-08-02T15:11:39.508Z,14.13
2017-08-02T15:14:07.181Z,11.30
2017-08-02T15:16:34.788Z,9.67
2017-08-02T15:19:02.411Z,17.27
2017-08-02T15:21:30.851Z,14.27
2017-08-02T15:23:58.472Z,11.80
2017-08-02T15:26:26.744Z,11.20
2017-08-02T15:28:54.412Z,12.23
2017-08-02T15:31:22.812Z,11.13
2017-08-02T15:33:50.437Z,12.00
2017-08-02T15:36:18.105Z,11.00
2017-08-02T15:38:45.729Z,14.00
2017-08-02T15:41:13.352Z,17.70
2017-08-02T15:43:41.028Z,22.53
2017-08-02T15:46:08.817Z,14.60
2017-08-02T15:48:36.434Z,17.93
2017-08-02T15:51:04.141Z,11.03
2017-08-02T15:53:31.803Z,10.40
2017-08-02T15:55:59.418Z,12.17
2017-08-02T15:58:27.096Z,9.80
2017-08-02T16:00:54.708Z,10.33
2017-08-02T16:03:22.558Z,13.63
2017-08-02T16:05:50.233Z,12.80
2017-08-02T16:08:17.869Z,20.43
2017-08-02T16:10:45.492Z,10.17
2017-08-02T16:13:13.942Z,11.27
2017-08-02T16:15:41.692Z,13.37
2017-08-02T16:18:09.301Z,9.73
2017-08-02T16:20:36.970Z,17.47
2017-08-02T16:23:04.599Z,16.33
2017-08-02T16:25:32.220Z,9.67
2017-08-02T16:28:00.035Z,12.87
2017-08-02T16:30:27.657Z,18.90
2017-08-02T16:32:55.436Z,16.07
2017-08-02T16:35:23.120Z,9.17
2017-08-02T16:37:50.931Z,13.23
2017-08-02T16:40:18.553Z,10.63
2017-08-02T16:42:46.226Z,15.70
2017-08-02T16:45:13.850Z,14.50
2017-08-02T16:47:41.492Z,16.00
2017-08-02T16:50:09.141Z,23.10
2017-08-02T16:52:36.796Z,16.43
2017-08-02T16:55:04.712Z,13.17
2017-08-02T16:57:32.393Z,14.80
2017-08-02T17:00:00.012Z,16.93
2017-08-02T17:02:27.623Z,13.30
2017-08-02T17:04:55.293Z,12.67
2017-08-02T17:07:22.934Z,10.70
2017-08-02T17:09:50.901Z,14.73
2017-08-02T17:12:18.602Z,16.23
2017-08-02T17:14:46.529Z,10.83
2017-08-02T17:17:14.600Z,14.70
2017-08-02T17:19:42.277Z,8.60
2017-08-02T17:22:09.901Z,12.00
2017-08-02T17:24:37.524Z,12.63
2017-08-02T17:27:05.196Z,14.03
2017-08-02T17:29:32.825Z,18.00
2017-08-02T17:32:00.448Z,11.30
2017-08-02T17:34:28.117Z,12.13
2017-08-02T17:36:55.744Z,9.30
2017-08-02T17:39:24.133Z,9.90
2017-08-02T17:41:51.820Z,13.27
2017-08-02T17:44:19.444Z,11.00
2017-08-02T17:46:47.075Z,9.60
2017-08-02T17:49:14.850Z,9.27
2017-08-02T17:51:42.457Z,12.70
2017-08-02T17:54:10.084Z,12.97
2017-08-02T17:56:37.777Z,14.07
2017-08-02T17:59:05.420Z,11.90
2017-08-02T18:01:33.062Z,18.00
2017-08-02T18:04:00.748Z,13.00
2017-08-02T18:06:28.373Z,11.90
2017-08-02T18:08:56.001Z,16.60
2017-08-02T18:11:23.676Z,11.70
2017-08-02T18:13:51.300Z,16.63
2017-08-02T18:16:19.692Z,23.73
2017-08-02T18:18:48.173Z,69.83
2017-08-02T18:21:15.789Z,48.23
2017-08-02T18:23:43.420Z,52.67
2017-08-02T18:26:11.093Z,32.60
2017-08-02T18:28:38.766Z,21.50
2017-08-02T18:31:06.395Z,18.47
2017-08-02T18:33:34.080Z,17.20
2017-08-02T18:36:01.777Z,13.33
2017-08-02T18:38:29.396Z,16.23
2017-08-02T18:40:57.136Z,12.73
2017-08-02T18:43:24.765Z,16.47
2017-08-02T18:45:52.584Z,17.13
2017-08-02T18:48:20.296Z,18.40
2017-08-02T18:50:47.929Z,21.53
2017-08-02T18:53:16.115Z,13.87
2017-08-02T18:55:44.311Z,16.53
2017-08-02T18:58:11.932Z,20.43
2017-08-02T19:00:39.567Z,15.40
2017-08-02T19:03:07.593Z,16.47
2017-08-02T19:05:35.274Z,16.83
2017-08-02T19:08:02.894Z,13.90
2017-08-02T19:10:30.781Z,17.53
2017-08-02T19:12:58.400Z,18.23
2017-08-02T19:15:26.112Z,16.97
2017-08-02T19:17:53.765Z,14.27
2017-08-02T19:20:21.402Z,15.67
2017-08-02T19:22:49.019Z,23.67
2017-08-02T19:25:16.709Z,15.00
2017-08-02T19:27:44.341Z,13.07
2017-08-02T19:30:11.982Z,15.27
2017-08-02T19:32:39.709Z,13.60
2017-08-02T19:35:07.328Z,21.60
2017-08-02T19:37:34.956Z,19.53
2017-08-02T19:40:02.619Z,19.50
2017-08-02T19:42:30.252Z,20.70
2017-08-02T19:44:59.318Z,21.13
2017-08-02T19:47:27.012Z,20.30
2017-08-02T19:49:55.400Z,13.73
2017-08-02T19:52:23.794Z,16.70
2017-08-02T19:54:51.479Z,18.97
2017-08-02T19:57:19.096Z,19.30
2017-08-02T19:59:46.723Z,16.40
2017-08-02T20:02:14.606Z,14.13
2017-08-02T20:04:42.240Z,23.70
2017-08-02T20:07:09.862Z,18.07
2017-08-02T20:09:38.144Z,14.07
2017-08-02T20:12:05.791Z,17.27
2017-08-02T20:14:33.418Z,20.60
2017-08-02T20:17:01.104Z,22.83
2017-08-02T20:19:28.730Z,19.70
2017-08-02T20:21:56.360Z,16.80
2017-08-02T20:24:24.036Z,15.80
2017-08-02T20:26:51.661Z,19.53
2017-08-02T20:29:19.383Z,19.90
2017-08-02T20:31:47.458Z,22.23
2017-08-02T20:34:15.093Z,28.13
2017-08-02T20:36:42.905Z,16.70
2017-08-02T20:39:10.708Z,18.90
2017-08-02T20:41:40.094Z,18.73
2017-08-02T20:44:09.363Z,18.53
2017-08-02T20:46:37.374Z,18.10
2017-08-02T20:49:06.134Z,16.33
2017-08-02T20:51:35.925Z,20.57
2017-08-02T20:54:04.663Z,19.70
2017-08-02T20:56:33.408Z,20.33
2017-08-02T20:59:02.099Z,22.83
2017-08-02T21:01:30.038Z,18.30
2017-08-02T21:03:59.623Z,24.50
2017-08-02T21:06:27.701Z,24.50
2017-08-02T21:08:57.177Z,20.60
2017-08-02T21:11:25.144Z,21.63
2017-08-02T21:13:53.724Z,21.73
2017-08-02T21:16:21.621Z,20.50
2017-08-02T21:18:49.647Z,22.67
2017-08-02T21:21:18.127Z,22.50
2017-08-02T21:23:46.135Z,19.40
2017-08-02T21:26:13.990Z,20.17
2017-08-02T21:28:43.366Z,20.40
2017-08-02T21:31:12.471Z,24.50
2017-08-02T21:33:42.715Z,18.07
2017-08-02T21:36:10.592Z,19.43
2017-08-02T21:38:41.679Z,18.97
2017-08-02T21:41:09.959Z,18.83
2017-08-02T21:43:37.971Z,18.93
2017-08-02T21:46:05.982Z,23.90
2017-08-02T21:48:36.143Z,23.00
2017-08-02T21:51:05.421Z,24.17
2017-08-02T21:53:34.348Z,21.97
2017-08-02T21:56:02.401Z,24.63
2017-08-02T21:58:30.238Z,18.97
2017-08-02T22:01:01.005Z,23.90
2017-08-02T22:03:29.988Z,27.60
2017-08-02T22:05:57.862Z,25.53
2017-08-02T22:08:25.732Z,22.50
2017-08-02T22:10:54.938Z,19.63
2017-08-02T22:13:22.571Z,19.40
2017-08-02T22:15:50.196Z,26.80
2017-08-02T22:18:18.510Z,21.43
2017-08-02T22:20:46.132Z,26.83
2017-08-02T22:23:13.756Z,25.03
2017-08-02T22:25:41.453Z,23.90
2017-08-02T22:28:10.100Z,29.60
2017-08-02T22:30:37.719Z,27.97
2017-08-02T22:33:05.637Z,18.20
2017-08-02T22:35:33.266Z,21.77
2017-08-02T22:38:00.888Z,17.80
2017-08-02T22:40:29.904Z,20.00
2017-08-02T22:42:57.530Z,21.30
2017-08-02T22:45:25.158Z,18.53
2017-08-02T22:47:52.838Z,31.17
2017-08-02T22:50:20.458Z,23.10
2017-08-02T22:52:48.098Z,22.97
2017-08-02T22:55:16.802Z,23.20
2017-08-02T22:57:44.421Z,22.40
2017-08-02T23:00:12.060Z,23.30
2017-08-02T23:02:39.743Z,30.33
2017-08-02T23:05:07.366Z,25.50
2017-08-02T23:07:34.995Z,19.30
2017-08-02T23:10:03.457Z,18.53
2017-08-02T23:12:31.083Z,24.53
2017-08-02T23:14:58.709Z,19.77
2017-08-02T23:17:26.409Z,26.47
2017-08-02T23:19:54.024Z,23.90
2017-08-02T23:22:21.661Z,23.07
2017-08-02T23:24:49.328Z,24.43
2017-08-02T23:27:16.954Z,24.33
2017-08-02T23:29:44.632Z,23.63
2017-08-02T23:32:12.619Z,25.07
2017-08-02T23:34:41.002Z,25.60
2017-08-02T23:37:08.624Z,24.43
2017-08-02T23:39:36.292Z,26.07
2017-08-02T23:42:04.076Z,28.37
2017-08-02T23:44:31.751Z,24.13
2017-08-02T23:47:00.158Z,28.23
2017-08-02T23:49:28.593Z,25.03
2017-08-02T23:51:56.218Z,22.20
2017-08-02T23:54:23.978Z,23.10
2017-08-02T23:56:51.610Z,29.27
2017-08-02T23:59:19.233Z,24.20
